Browns Hollow, New York
Current Conditions -  °F | °C
As of 5:35 PM on Monday 26 Jan 2015 (Local Time) from KNY0 Reporting Station
Overcast Overcast  
Wind Chill:   Ceiling: 5000
Heat Index: 16°   Visibility: 10mi
Dew Point:   Wind: 9mph
Humidity: 49%   Direction: 60°ENE
Pressure: 29.97"   Gusts: NA
Location:  42.8548°N, 74.5942°W
Report Text: KNY0 262235Z AUTO 06008KT 10SM SCT033 SCT043 OVC050 M09/M18 A2997 RMK AO2 T10911180
Loading
Personal Weather Stations






























Interactive Weather Map New forecast layout! Learn more

10-Day Weather Forecast

Advertisements
Track Severe Weather on mobile